X  Close Metar Aviation Weather Data     EHKD De Kooy Airport
Temperature
43°F Temperature
34°F Dewpoint
71% Humidity



Wind
13 MPH
21 KM/H
6 M/S
11 KTS



40°
NE
Current Conditions

Mostly Cloudy Mostly Cloudy
Pressure 1016.93 (hPa) - 30.03 (inHg)
Visibility 6 (mile) - 9.7 (km)
Airport
Airport-code EHKD

Location: De Kooy Airport
Distance: 34 (mi)

Metar:
EHKD 262325Z AUTO 04011KT 360V070 9999 BKN025 06/01 Q1017 BLU

Time: 27-02-2024 00:25 CET